sensor_id;sensor_type;location;lat;lon;timestamp;temperature;humidity
18041;DHT22;9145;48.588;9.250;2022-07-31T00:00:19;19.40;99.90
18041;DHT22;9145;48.588;9.250;2022-07-31T00:02:47;19.40;99.90
18041;DHT22;9145;48.588;9.250;2022-07-31T00:05:14;19.40;99.90
18041;DHT22;9145;48.588;9.250;2022-07-31T00:07:41;19.40;99.90
18041;DHT22;9145;48.588;9.250;2022-07-31T00:10:09;19.40;99.90
18041;DHT22;9145;48.588;9.250;2022-07-31T00:12:36;19.30;99.90
18041;DHT22;9145;48.588;9.250;2022-07-31T00:15:04;19.30;99.90
18041;DHT22;9145;48.588;9.250;2022-07-31T00:17:31;19.20;99.90
18041;DHT22;9145;48.588;9.250;2022-07-31T00:19:59;19.10;99.90
18041;DHT22;9145;48.588;9.250;2022-07-31T00:22:26;19.10;99.90
18041;DHT22;9145;48.588;9.250;2022-07-31T00:24:53;19.10;99.90
18041;DHT22;9145;48.588;9.250;2022-07-31T00:27:20;19.10;99.90
18041;DHT22;9145;48.588;9.250;2022-07-31T00:29:48;19.10;99.90
18041;DHT22;9145;48.588;9.250;2022-07-31T00:32:15;19.10;99.90
18041;DHT22;9145;48.588;9.250;2022-07-31T00:34:42;19.00;99.90
18041;DHT22;9145;48.588;9.250;2022-07-31T00:37:10;18.80;99.90
18041;DHT22;9145;48.588;9.250;2022-07-31T00:39:37;18.80;99.90
18041;DHT22;9145;48.588;9.250;2022-07-31T00:42:04;18.80;99.90
18041;DHT22;9145;48.588;9.250;2022-07-31T00:44:31;18.80;99.90
18041;DHT22;9145;48.588;9.250;2022-07-31T00:46:58;18.70;99.90
18041;DHT22;9145;48.588;9.250;2022-07-31T00:49:25;18.70;99.90
18041;DHT22;9145;48.588;9.250;2022-07-31T00:51:52;18.70;99.90
18041;DHT22;9145;48.588;9.250;2022-07-31T00:54:20;18.70;99.90
18041;DHT22;9145;48.588;9.250;2022-07-31T00:56:47;18.70;99.90
18041;DHT22;9145;48.588;9.250;2022-07-31T00:59:14;18.60;99.90
18041;DHT22;9145;48.588;9.250;2022-07-31T01:01:41;18.60;99.90
18041;DHT22;9145;48.588;9.250;2022-07-31T01:04:08;18.60;99.90
18041;DHT22;9145;48.588;9.250;2022-07-31T01:06:37;18.60;99.90
18041;DHT22;9145;48.588;9.250;2022-07-31T01:09:04;18.60;99.90
18041;DHT22;9145;48.588;9.250;2022-07-31T01:11:40;18.60;99.90
18041;DHT22;9145;48.588;9.250;2022-07-31T01:14:11;18.60;99.90
18041;DHT22;9145;48.588;9.250;2022-07-31T01:16:42;18.70;99.90
18041;DHT22;9145;48.588;9.250;2022-07-31T01:19:17;18.60;99.90
18041;DHT22;9145;48.588;9.250;2022-07-31T01:21:53;18.60;99.90
18041;DHT22;9145;48.588;9.250;2022-07-31T01:24:38;18.50;99.90
18041;DHT22;9145;48.588;9.250;2022-07-31T01:27:14;18.40;99.90
18041;DHT22;9145;48.588;9.250;2022-07-31T01:29:49;18.30;99.90
18041;DHT22;9145;48.588;9.250;2022-07-31T01:32:24;18.30;99.90
18041;DHT22;9145;48.588;9.250;2022-07-31T01:34:54;18.20;99.90
18041;DHT22;9145;48.588;9.250;2022-07-31T01:37:29;18.20;99.90
18041;DHT22;9145;48.588;9.250;2022-07-31T01:40:00;18.20;99.90
18041;DHT22;9145;48.588;9.250;2022-07-31T01:42:28;18.30;99.90
18041;DHT22;9145;48.588;9.250;2022-07-31T01:44:59;18.30;99.90
18041;DHT22;9145;48.588;9.250;2022-07-31T01:47:28;18.30;99.90
18041;DHT22;9145;48.588;9.250;2022-07-31T01:49:57;18.30;99.90
18041;DHT22;9145;48.588;9.250;2022-07-31T01:52:28;18.30;99.90
18041;DHT22;9145;48.588;9.250;2022-07-31T01:54:56;18.20;99.90
18041;DHT22;9145;48.588;9.250;2022-07-31T01:57:26;18.20;99.90
18041;DHT22;9145;48.588;9.250;2022-07-31T01:59:57;18.30;99.90
18041;DHT22;9145;48.588;9.250;2022-07-31T02:02:25;18.30;99.90
18041;DHT22;9145;48.588;9.250;2022-07-31T02:04:54;18.30;99.90
18041;DHT22;9145;48.588;9.250;2022-07-31T02:07:21;18.30;99.90
18041;DHT22;9145;48.588;9.250;2022-07-31T02:09:50;18.30;99.90
18041;DHT22;9145;48.588;9.250;2022-07-31T02:12:18;18.20;99.90
18041;DHT22;9145;48.588;9.250;2022-07-31T02:14:45;18.20;99.90
18041;DHT22;9145;48.588;9.250;2022-07-31T02:17:14;18.10;99.90
18041;DHT22;9145;48.588;9.250;2022-07-31T02:19:42;18.10;99.90
18041;DHT22;9145;48.588;9.250;2022-07-31T02:22:10;18.00;99.90
18041;DHT22;9145;48.588;9.250;2022-07-31T02:24:37;17.90;99.90
18041;DHT22;9145;48.588;9.250;2022-07-31T02:27:05;18.00;99.90
18041;DHT22;9145;48.588;9.250;2022-07-31T02:29:32;18.00;99.90
18041;DHT22;9145;48.588;9.250;2022-07-31T02:32:01;18.00;99.90
18041;DHT22;9145;48.588;9.250;2022-07-31T02:34:33;18.10;99.90
18041;DHT22;9145;48.588;9.250;2022-07-31T02:37:00;18.10;99.90
18041;DHT22;9145;48.588;9.250;2022-07-31T02:39:30;18.00;99.90
18041;DHT22;9145;48.588;9.250;2022-07-31T02:41:59;17.90;99.90
18041;DHT22;9145;48.588;9.250;2022-07-31T02:44:27;17.90;99.90
18041;DHT22;9145;48.588;9.250;2022-07-31T02:46:55;17.80;99.90
18041;DHT22;9145;48.588;9.250;2022-07-31T02:49:23;17.80;99.90
18041;DHT22;9145;48.588;9.250;2022-07-31T02:51:51;17.70;99.90
18041;DHT22;9145;48.588;9.250;2022-07-31T02:54:20;17.70;99.90
18041;DHT22;9145;48.588;9.250;2022-07-31T02:56:50;17.70;99.90
18041;DHT22;9145;48.588;9.250;2022-07-31T02:59:17;17.60;99.90
18041;DHT22;9145;48.588;9.250;2022-07-31T03:01:46;17.70;99.90
18041;DHT22;9145;48.588;9.250;2022-07-31T03:04:13;17.70;99.90
18041;DHT22;9145;48.588;9.250;2022-07-31T03:06:40;17.80;99.90
18041;DHT22;9145;48.588;9.250;2022-07-31T03:09:09;17.80;99.90
18041;DHT22;9145;48.588;9.250;2022-07-31T03:11:36;17.80;99.90
18041;DHT22;9145;48.588;9.250;2022-07-31T03:14:03;17.80;99.90
18041;DHT22;9145;48.588;9.250;2022-07-31T03:16:31;17.70;99.90
18041;DHT22;9145;48.588;9.250;2022-07-31T03:19:00;17.70;99.90
18041;DHT22;9145;48.588;9.250;2022-07-31T03:21:28;17.70;99.90
18041;DHT22;9145;48.588;9.250;2022-07-31T03:23:56;17.60;99.90
18041;DHT22;9145;48.588;9.250;2022-07-31T03:26:24;17.60;99.90
18041;DHT22;9145;48.588;9.250;2022-07-31T03:28:52;17.40;99.90
18041;DHT22;9145;48.588;9.250;2022-07-31T03:31:20;17.30;99.90
18041;DHT22;9145;48.588;9.250;2022-07-31T03:33:47;17.20;99.90
18041;DHT22;9145;48.588;9.250;2022-07-31T03:36:14;17.10;99.90
18041;DHT22;9145;48.588;9.250;2022-07-31T03:38:42;17.10;99.90
18041;DHT22;9145;48.588;9.250;2022-07-31T03:41:09;17.10;99.90
18041;DHT22;9145;48.588;9.250;2022-07-31T03:43:38;17.10;99.90
18041;DHT22;9145;48.588;9.250;2022-07-31T03:46:06;17.00;99.90
18041;DHT22;9145;48.588;9.250;2022-07-31T03:48:34;17.00;99.90
18041;DHT22;9145;48.588;9.250;2022-07-31T03:51:02;17.00;99.90
18041;DHT22;9145;48.588;9.250;2022-07-31T03:53:30;17.00;99.90
18041;DHT22;9145;48.588;9.250;2022-07-31T03:55:58;17.00;99.90
18041;DHT22;9145;48.588;9.250;2022-07-31T03:58:26;17.00;99.90
18041;DHT22;9145;48.588;9.250;2022-07-31T04:00:54;17.00;99.90
18041;DHT22;9145;48.588;9.250;2022-07-31T04:03:21;17.10;99.90
18041;DHT22;9145;48.588;9.250;2022-07-31T04:05:48;17.10;99.90
18041;DHT22;9145;48.588;9.250;2022-07-31T04:08:15;17.20;99.90
18041;DHT22;9145;48.588;9.250;2022-07-31T04:10:42;17.30;99.90
18041;DHT22;9145;48.588;9.250;2022-07-31T04:13:09;17.30;99.90
18041;DHT22;9145;48.588;9.250;2022-07-31T04:15:36;17.30;99.90
18041;DHT22;9145;48.588;9.250;2022-07-31T04:18:04;17.30;99.90
18041;DHT22;9145;48.588;9.250;2022-07-31T04:20:31;17.30;99.90
18041;DHT22;9145;48.588;9.250;2022-07-31T04:22:58;17.30;99.90
18041;DHT22;9145;48.588;9.250;2022-07-31T04:25:25;17.30;99.90
18041;DHT22;9145;48.588;9.250;2022-07-31T04:27:52;17.30;99.90
18041;DHT22;9145;48.588;9.250;2022-07-31T04:30:19;17.30;99.90
18041;DHT22;9145;48.588;9.250;2022-07-31T04:32:46;17.30;99.90
18041;DHT22;9145;48.588;9.250;2022-07-31T04:35:14;17.40;99.90
18041;DHT22;9145;48.588;9.250;2022-07-31T04:37:41;17.40;99.90
18041;DHT22;9145;48.588;9.250;2022-07-31T04:40:09;17.40;99.90
18041;DHT22;9145;48.588;9.250;2022-07-31T04:42:36;17.40;99.90
18041;DHT22;9145;48.588;9.250;2022-07-31T04:45:04;17.30;99.90
18041;DHT22;9145;48.588;9.250;2022-07-31T04:47:31;17.30;99.90
18041;DHT22;9145;48.588;9.250;2022-07-31T04:49:58;17.30;99.90
18041;DHT22;9145;48.588;9.250;2022-07-31T04:52:26;17.30;99.90
18041;DHT22;9145;48.588;9.250;2022-07-31T04:54:53;17.40;99.90
18041;DHT22;9145;48.588;9.250;2022-07-31T04:57:20;17.40;99.90
18041;DHT22;9145;48.588;9.250;2022-07-31T04:59:47;17.50;99.90
18041;DHT22;9145;48.588;9.250;2022-07-31T05:02:14;17.50;99.90
18041;DHT22;9145;48.588;9.250;2022-07-31T05:04:41;17.50;99.90
18041;DHT22;9145;48.588;9.250;2022-07-31T05:07:07;17.50;99.90
18041;DHT22;9145;48.588;9.250;2022-07-31T05:09:36;17.60;99.90
18041;DHT22;9145;48.588;9.250;2022-07-31T05:12:03;17.60;99.90
18041;DHT22;9145;48.588;9.250;2022-07-31T05:14:30;17.70;99.90
18041;DHT22;9145;48.588;9.250;2022-07-31T05:16:57;17.70;99.90
18041;DHT22;9145;48.588;9.250;2022-07-31T05:19:24;17.80;99.90
18041;DHT22;9145;48.588;9.250;2022-07-31T05:21:54;17.80;99.90
18041;DHT22;9145;48.588;9.250;2022-07-31T05:24:24;17.90;99.90
18041;DHT22;9145;48.588;9.250;2022-07-31T05:26:52;17.90;99.90
18041;DHT22;9145;48.588;9.250;2022-07-31T05:29:19;17.90;99.90
18041;DHT22;9145;48.588;9.250;2022-07-31T05:31:46;18.00;99.90
18041;DHT22;9145;48.588;9.250;2022-07-31T05:34:13;18.00;99.90
18041;DHT22;9145;48.588;9.250;2022-07-31T05:36:40;18.00;99.90
18041;DHT22;9145;48.588;9.250;2022-07-31T05:39:07;18.10;99.90
18041;DHT22;9145;48.588;9.250;2022-07-31T05:41:34;18.20;99.90
18041;DHT22;9145;48.588;9.250;2022-07-31T05:44:03;18.30;99.90
18041;DHT22;9145;48.588;9.250;2022-07-31T05:46:30;18.40;99.90
18041;DHT22;9145;48.588;9.250;2022-07-31T05:48:57;18.40;99.90
18041;DHT22;9145;48.588;9.250;2022-07-31T05:51:24;18.40;99.90
18041;DHT22;9145;48.588;9.250;2022-07-31T05:53:51;18.50;99.90
18041;DHT22;9145;48.588;9.250;2022-07-31T05:56:18;18.50;99.90
18041;DHT22;9145;48.588;9.250;2022-07-31T05:58:45;18.60;99.90
18041;DHT22;9145;48.588;9.250;2022-07-31T06:01:13;18.60;99.90
18041;DHT22;9145;48.588;9.250;2022-07-31T06:03:40;18.60;99.90
18041;DHT22;9145;48.588;9.250;2022-07-31T06:06:07;18.70;99.90
18041;DHT22;9145;48.588;9.250;2022-07-31T06:08:34;18.80;99.90
18041;DHT22;9145;48.588;9.250;2022-07-31T06:11:00;18.80;99.90
18041;DHT22;9145;48.588;9.250;2022-07-31T06:13:28;18.90;99.90
18041;DHT22;9145;48.588;9.250;2022-07-31T06:15:55;19.00;99.90
18041;DHT22;9145;48.588;9.250;2022-07-31T06:18:24;19.00;99.90
18041;DHT22;9145;48.588;9.250;2022-07-31T06:20:51;19.10;99.90
18041;DHT22;9145;48.588;9.250;2022-07-31T06:23:18;19.20;99.90
18041;DHT22;9145;48.588;9.250;2022-07-31T06:25:45;19.20;99.90
18041;DHT22;9145;48.588;9.250;2022-07-31T06:28:12;19.30;99.90
18041;DHT22;9145;48.588;9.250;2022-07-31T06:30:39;19.40;99.90
18041;DHT22;9145;48.588;9.250;2022-07-31T06:33:06;19.40;99.90
18041;DHT22;9145;48.588;9.250;2022-07-31T06:35:35;19.40;99.90
18041;DHT22;9145;48.588;9.250;2022-07-31T06:38:01;19.50;99.90
18041;DHT22;9145;48.588;9.250;2022-07-31T06:40:28;19.50;99.90
18041;DHT22;9145;48.588;9.250;2022-07-31T06:42:55;19.50;99.90
18041;DHT22;9145;48.588;9.250;2022-07-31T06:45:22;19.50;99.90
18041;DHT22;9145;48.588;9.250;2022-07-31T06:47:49;19.50;99.90
18041;DHT22;9145;48.588;9.250;2022-07-31T06:50:16;19.60;99.90
18041;DHT22;9145;48.588;9.250;2022-07-31T06:52:45;19.70;99.90
18041;DHT22;9145;48.588;9.250;2022-07-31T06:55:12;19.70;99.90
18041;DHT22;9145;48.588;9.250;2022-07-31T06:57:39;19.80;99.90
18041;DHT22;9145;48.588;9.250;2022-07-31T07:00:06;19.90;99.90
18041;DHT22;9145;48.588;9.250;2022-07-31T07:02:34;19.90;99.90
18041;DHT22;9145;48.588;9.250;2022-07-31T07:05:02;20.10;99.90
18041;DHT22;9145;48.588;9.250;2022-07-31T07:07:29;20.00;99.90
18041;DHT22;9145;48.588;9.250;2022-07-31T07:09:57;20.10;99.90
18041;DHT22;9145;48.588;9.250;2022-07-31T07:12:24;20.10;99.90
18041;DHT22;9145;48.588;9.250;2022-07-31T07:14:51;20.20;99.90
18041;DHT22;9145;48.588;9.250;2022-07-31T07:17:18;20.30;99.90
18041;DHT22;9145;48.588;9.250;2022-07-31T07:19:45;20.30;99.90
18041;DHT22;9145;48.588;9.250;2022-07-31T07:22:12;20.30;99.90
18041;DHT22;9145;48.588;9.250;2022-07-31T07:24:39;20.40;99.90
18041;DHT22;9145;48.588;9.250;2022-07-31T07:27:07;20.40;99.90
18041;DHT22;9145;48.588;9.250;2022-07-31T07:29:34;20.50;99.90
18041;DHT22;9145;48.588;9.250;2022-07-31T07:32:01;20.60;99.90
18041;DHT22;9145;48.588;9.250;2022-07-31T07:34:28;20.50;99.90
18041;DHT22;9145;48.588;9.250;2022-07-31T07:36:55;20.50;99.90
18041;DHT22;9145;48.588;9.250;2022-07-31T07:39:22;20.50;99.90
18041;DHT22;9145;48.588;9.250;2022-07-31T07:41:49;20.60;99.90
18041;DHT22;9145;48.588;9.250;2022-07-31T07:44:17;20.70;99.90
18041;DHT22;9145;48.588;9.250;2022-07-31T07:46:44;20.70;99.90
18041;DHT22;9145;48.588;9.250;2022-07-31T07:49:11;20.70;99.90
18041;DHT22;9145;48.588;9.250;2022-07-31T07:51:38;20.80;99.90
18041;DHT22;9145;48.588;9.250;2022-07-31T07:54:05;20.90;99.90
18041;DHT22;9145;48.588;9.250;2022-07-31T07:56:32;20.90;99.90
18041;DHT22;9145;48.588;9.250;2022-07-31T07:58:59;21.00;99.90
18041;DHT22;9145;48.588;9.250;2022-07-31T08:01:27;21.10;99.90
18041;DHT22;9145;48.588;9.250;2022-07-31T08:03:54;21.30;99.90
18041;DHT22;9145;48.588;9.250;2022-07-31T08:06:21;21.50;99.90
18041;DHT22;9145;48.588;9.250;2022-07-31T08:08:48;21.70;99.90
18041;DHT22;9145;48.588;9.250;2022-07-31T08:11:15;21.90;99.90
18041;DHT22;9145;48.588;9.250;2022-07-31T08:13:43;22.10;99.90
18041;DHT22;9145;48.588;9.250;2022-07-31T08:16:09;22.10;99.90
18041;DHT22;9145;48.588;9.250;2022-07-31T08:18:38;22.30;99.90
18041;DHT22;9145;48.588;9.250;2022-07-31T08:21:05;22.20;99.90
18041;DHT22;9145;48.588;9.250;2022-07-31T08:23:32;22.30;99.90
18041;DHT22;9145;48.588;9.250;2022-07-31T08:25:58;22.50;99.90
18041;DHT22;9145;48.588;9.250;2022-07-31T08:28:25;22.60;99.90
18041;DHT22;9145;48.588;9.250;2022-07-31T08:30:52;22.70;99.90
18041;DHT22;9145;48.588;9.250;2022-07-31T08:33:19;22.80;99.90
18041;DHT22;9145;48.588;9.250;2022-07-31T08:35:47;23.00;99.90
18041;DHT22;9145;48.588;9.250;2022-07-31T08:38:16;23.10;99.90
18041;DHT22;9145;48.588;9.250;2022-07-31T08:40:44;23.20;99.90
18041;DHT22;9145;48.588;9.250;2022-07-31T08:43:11;23.20;99.90
18041;DHT22;9145;48.588;9.250;2022-07-31T08:45:40;23.20;99.90
18041;DHT22;9145;48.588;9.250;2022-07-31T08:48:08;23.20;99.90
18041;DHT22;9145;48.588;9.250;2022-07-31T08:50:38;23.30;99.90
18041;DHT22;9145;48.588;9.250;2022-07-31T08:53:07;23.50;99.90
18041;DHT22;9145;48.588;9.250;2022-07-31T08:55:35;23.80;99.90
18041;DHT22;9145;48.588;9.250;2022-07-31T08:58:03;23.90;99.90
18041;DHT22;9145;48.588;9.250;2022-07-31T09:00:30;24.00;99.90
18041;DHT22;9145;48.588;9.250;2022-07-31T09:02:58;24.10;99.90
18041;DHT22;9145;48.588;9.250;2022-07-31T09:05:24;24.20;99.90
18041;DHT22;9145;48.588;9.250;2022-07-31T09:07:52;24.60;99.90
18041;DHT22;9145;48.588;9.250;2022-07-31T09:10:21;24.70;99.90
18041;DHT22;9145;48.588;9.250;2022-07-31T09:12:49;24.90;99.90
18041;DHT22;9145;48.588;9.250;2022-07-31T09:15:20;24.70;99.90
18041;DHT22;9145;48.588;9.250;2022-07-31T09:17:48;24.70;99.90
18041;DHT22;9145;48.588;9.250;2022-07-31T09:20:19;24.80;99.90
18041;DHT22;9145;48.588;9.250;2022-07-31T09:22:51;25.00;99.90
18041;DHT22;9145;48.588;9.250;2022-07-31T09:25:19;25.20;99.90
18041;DHT22;9145;48.588;9.250;2022-07-31T09:27:47;25.30;99.90
18041;DHT22;9145;48.588;9.250;2022-07-31T09:30:16;25.40;99.90
18041;DHT22;9145;48.588;9.250;2022-07-31T09:32:43;25.60;99.90
18041;DHT22;9145;48.588;9.250;2022-07-31T09:35:12;25.80;99.90
18041;DHT22;9145;48.588;9.250;2022-07-31T09:37:40;25.80;99.90
18041;DHT22;9145;48.588;9.250;2022-07-31T09:40:08;25.90;99.90
18041;DHT22;9145;48.588;9.250;2022-07-31T09:42:38;26.20;99.90
18041;DHT22;9145;48.588;9.250;2022-07-31T09:45:16;26.20;99.90
18041;DHT22;9145;48.588;9.250;2022-07-31T09:47:44;26.20;99.90
18041;DHT22;9145;48.588;9.250;2022-07-31T09:50:11;26.40;99.90
18041;DHT22;9145;48.588;9.250;2022-07-31T09:52:38;26.70;99.90
18041;DHT22;9145;48.588;9.250;2022-07-31T09:55:08;27.00;99.90
18041;DHT22;9145;48.588;9.250;2022-07-31T09:57:37;27.00;99.70
18041;DHT22;9145;48.588;9.250;2022-07-31T10:00:07;27.10;99.90
18041;DHT22;9145;48.588;9.250;2022-07-31T10:02:36;27.20;99.90
18041;DHT22;9145;48.588;9.250;2022-07-31T10:05:05;27.40;99.90
18041;DHT22;9145;48.588;9.250;2022-07-31T10:07:32;27.80;98.40
18041;DHT22;9145;48.588;9.250;2022-07-31T10:10:03;27.80;98.10
18041;DHT22;9145;48.588;9.250;2022-07-31T10:12:34;27.90;98.90
18041;DHT22;9145;48.588;9.250;2022-07-31T10:15:06;27.70;97.00
18041;DHT22;9145;48.588;9.250;2022-07-31T10:17:36;27.50;99.30
18041;DHT22;9145;48.588;9.250;2022-07-31T10:20:07;27.30;98.40
18041;DHT22;9145;48.588;9.250;2022-07-31T10:22:39;27.20;97.70
18041;DHT22;9145;48.588;9.250;2022-07-31T10:25:09;27.00;99.90
18041;DHT22;9145;48.588;9.250;2022-07-31T10:27:38;26.90;97.00
18041;DHT22;9145;48.588;9.250;2022-07-31T10:30:08;26.80;97.90
18041;DHT22;9145;48.588;9.250;2022-07-31T10:32:35;26.90;99.90
18041;DHT22;9145;48.588;9.250;2022-07-31T10:35:03;26.80;98.80
18041;DHT22;9145;48.588;9.250;2022-07-31T10:37:35;26.90;97.90
18041;DHT22;9145;48.588;9.250;2022-07-31T10:40:10;26.90;97.50
18041;DHT22;9145;48.588;9.250;2022-07-31T10:42:44;27.00;96.00
18041;DHT22;9145;48.588;9.250;2022-07-31T10:45:13;27.40;98.20
18041;DHT22;9145;48.588;9.250;2022-07-31T10:47:52;27.80;97.00
18041;DHT22;9145;48.588;9.250;2022-07-31T10:50:20;28.10;98.00
18041;DHT22;9145;48.588;9.250;2022-07-31T10:52:48;28.40;97.90
18041;DHT22;9145;48.588;9.250;2022-07-31T10:55:16;28.50;97.70
18041;DHT22;9145;48.588;9.250;2022-07-31T10:57:47;28.70;96.90
18041;DHT22;9145;48.588;9.250;2022-07-31T11:00:17;29.10;95.60
18041;DHT22;9145;48.588;9.250;2022-07-31T11:02:45;29.00;95.80
18041;DHT22;9145;48.588;9.250;2022-07-31T11:05:14;28.90;95.50
18041;DHT22;9145;48.588;9.250;2022-07-31T11:07:43;28.80;96.10
18041;DHT22;9145;48.588;9.250;2022-07-31T11:10:16;28.60;96.40
18041;DHT22;9145;48.588;9.250;2022-07-31T11:12:44;28.60;96.00
18041;DHT22;9145;48.588;9.250;2022-07-31T11:15:22;28.30;96.10
18041;DHT22;9145;48.588;9.250;2022-07-31T11:17:49;27.90;95.70
18041;DHT22;9145;48.588;9.250;2022-07-31T11:20:18;28.00;95.00
18041;DHT22;9145;48.588;9.250;2022-07-31T11:22:52;28.00;94.90
18041;DHT22;9145;48.588;9.250;2022-07-31T11:25:20;27.90;95.30
18041;DHT22;9145;48.588;9.250;2022-07-31T11:27:48;28.10;96.20
18041;DHT22;9145;48.588;9.250;2022-07-31T11:30:15;28.30;96.40
18041;DHT22;9145;48.588;9.250;2022-07-31T11:32:48;28.30;95.10
18041;DHT22;9145;48.588;9.250;2022-07-31T11:35:29;28.30;94.40
18041;DHT22;9145;48.588;9.250;2022-07-31T11:37:56;28.40;96.40
18041;DHT22;9145;48.588;9.250;2022-07-31T11:40:24;28.30;94.90
18041;DHT22;9145;48.588;9.250;2022-07-31T11:42:51;28.30;94.50
18041;DHT22;9145;48.588;9.250;2022-07-31T11:45:18;28.10;95.40
18041;DHT22;9145;48.588;9.250;2022-07-31T11:47:47;27.80;95.60
18041;DHT22;9145;48.588;9.250;2022-07-31T11:50:16;27.80;95.30
18041;DHT22;9145;48.588;9.250;2022-07-31T11:52:43;28.20;95.30
18041;DHT22;9145;48.588;9.250;2022-07-31T11:55:14;28.50;93.50
18041;DHT22;9145;48.588;9.250;2022-07-31T11:57:41;29.00;94.70
18041;DHT22;9145;48.588;9.250;2022-07-31T12:00:10;29.20;93.40
18041;DHT22;9145;48.588;9.250;2022-07-31T12:02:42;29.40;93.00
18041;DHT22;9145;48.588;9.250;2022-07-31T12:05:12;29.60;92.90
18041;DHT22;9145;48.588;9.250;2022-07-31T12:07:40;29.90;92.90
18041;DHT22;9145;48.588;9.250;2022-07-31T12:10:10;30.10;93.10
18041;DHT22;9145;48.588;9.250;2022-07-31T12:12:38;30.10;92.30
18041;DHT22;9145;48.588;9.250;2022-07-31T12:15:13;30.00;91.60
18041;DHT22;9145;48.588;9.250;2022-07-31T12:17:41;30.00;92.80
18041;DHT22;9145;48.588;9.250;2022-07-31T12:20:09;30.10;90.90
18041;DHT22;9145;48.588;9.250;2022-07-31T12:22:37;30.10;92.80
18041;DHT22;9145;48.588;9.250;2022-07-31T12:25:05;29.90;90.50
18041;DHT22;9145;48.588;9.250;2022-07-31T12:27:37;29.70;91.40
18041;DHT22;9145;48.588;9.250;2022-07-31T12:30:17;29.40;91.40
18041;DHT22;9145;48.588;9.250;2022-07-31T12:32:44;29.40;92.50
18041;DHT22;9145;48.588;9.250;2022-07-31T12:35:11;29.50;91.10
18041;DHT22;9145;48.588;9.250;2022-07-31T12:37:44;29.40;91.30
18041;DHT22;9145;48.588;9.250;2022-07-31T12:40:21;29.80;93.40
18041;DHT22;9145;48.588;9.250;2022-07-31T12:42:48;30.10;89.60
18041;DHT22;9145;48.588;9.250;2022-07-31T12:45:16;29.90;90.00
18041;DHT22;9145;48.588;9.250;2022-07-31T12:47:53;29.90;90.20
18041;DHT22;9145;48.588;9.250;2022-07-31T12:50:20;30.00;90.90
18041;DHT22;9145;48.588;9.250;2022-07-31T12:52:49;29.70;92.60
18041;DHT22;9145;48.588;9.250;2022-07-31T12:55:16;29.60;90.60
18041;DHT22;9145;48.588;9.250;2022-07-31T12:57:44;29.50;91.30
18041;DHT22;9145;48.588;9.250;2022-07-31T13:00:11;29.40;95.00
18041;DHT22;9145;48.588;9.250;2022-07-31T13:02:38;29.50;91.80
18041;DHT22;9145;48.588;9.250;2022-07-31T13:05:09;29.50;94.00
18041;DHT22;9145;48.588;9.250;2022-07-31T13:07:36;29.50;90.90
18041;DHT22;9145;48.588;9.250;2022-07-31T13:10:06;30.00;93.30
18041;DHT22;9145;48.588;9.250;2022-07-31T13:12:33;30.50;91.60
18041;DHT22;9145;48.588;9.250;2022-07-31T13:15:00;30.50;89.80
18041;DHT22;9145;48.588;9.250;2022-07-31T13:17:27;30.60;90.10
18041;DHT22;9145;48.588;9.250;2022-07-31T13:19:54;30.90;92.10
18041;DHT22;9145;48.588;9.250;2022-07-31T13:22:22;31.20;88.90
18041;DHT22;9145;48.588;9.250;2022-07-31T13:24:48;31.80;91.80
18041;DHT22;9145;48.588;9.250;2022-07-31T13:27:17;31.90;89.40
18041;DHT22;9145;48.588;9.250;2022-07-31T13:29:44;31.90;84.90
18041;DHT22;9145;48.588;9.250;2022-07-31T13:32:11;31.80;83.00
18041;DHT22;9145;48.588;9.250;2022-07-31T13:34:38;31.50;86.70
18041;DHT22;9145;48.588;9.250;2022-07-31T13:37:06;31.10;87.30
18041;DHT22;9145;48.588;9.250;2022-07-31T13:39:33;31.10;87.50
18041;DHT22;9145;48.588;9.250;2022-07-31T13:41:59;31.40;87.90
18041;DHT22;9145;48.588;9.250;2022-07-31T13:44:28;31.50;85.00
18041;DHT22;9145;48.588;9.250;2022-07-31T13:46:55;31.80;85.70
18041;DHT22;9145;48.588;9.250;2022-07-31T13:49:22;32.10;90.30
18041;DHT22;9145;48.588;9.250;2022-07-31T13:51:53;31.80;87.80
18041;DHT22;9145;48.588;9.250;2022-07-31T13:54:20;31.30;82.60
18041;DHT22;9145;48.588;9.250;2022-07-31T13:56:47;31.10;85.30
18041;DHT22;9145;48.588;9.250;2022-07-31T13:59:14;30.90;82.50
18041;DHT22;9145;48.588;9.250;2022-07-31T14:01:43;30.60;89.20
18041;DHT22;9145;48.588;9.250;2022-07-31T14:04:11;30.50;85.90
18041;DHT22;9145;48.588;9.250;2022-07-31T14:06:38;30.40;88.80
18041;DHT22;9145;48.588;9.250;2022-07-31T14:09:05;30.40;84.40
18041;DHT22;9145;48.588;9.250;2022-07-31T14:11:31;30.50;87.80
18041;DHT22;9145;48.588;9.250;2022-07-31T14:13:58;30.60;86.10
18041;DHT22;9145;48.588;9.250;2022-07-31T14:16:25;31.10;90.70
18041;DHT22;9145;48.588;9.250;2022-07-31T14:18:54;31.50;83.00
18041;DHT22;9145;48.588;9.250;2022-07-31T14:21:21;31.80;82.60
18041;DHT22;9145;48.588;9.250;2022-07-31T14:23:48;31.80;81.80
18041;DHT22;9145;48.588;9.250;2022-07-31T14:26:15;31.80;81.50
18041;DHT22;9145;48.588;9.250;2022-07-31T14:28:41;31.70;85.30
18041;DHT22;9145;48.588;9.250;2022-07-31T14:31:08;31.50;83.80
18041;DHT22;9145;48.588;9.250;2022-07-31T14:33:36;31.20;82.60
18041;DHT22;9145;48.588;9.250;2022-07-31T14:36:04;30.90;81.10
18041;DHT22;9145;48.588;9.250;2022-07-31T14:38:31;31.10;83.80
18041;DHT22;9145;48.588;9.250;2022-07-31T14:40:58;31.70;79.10
18041;DHT22;9145;48.588;9.250;2022-07-31T14:43:27;31.60;81.30
18041;DHT22;9145;48.588;9.250;2022-07-31T14:45:54;31.70;78.10
18041;DHT22;9145;48.588;9.250;2022-07-31T14:48:20;32.00;79.20
18041;DHT22;9145;48.588;9.250;2022-07-31T14:50:47;32.40;80.00
18041;DHT22;9145;48.588;9.250;2022-07-31T14:53:16;32.90;80.30
18041;DHT22;9145;48.588;9.250;2022-07-31T14:55:42;32.80;77.80
18041;DHT22;9145;48.588;9.250;2022-07-31T14:58:09;33.10;78.80
18041;DHT22;9145;48.588;9.250;2022-07-31T15:00:36;33.50;76.20
18041;DHT22;9145;48.588;9.250;2022-07-31T15:03:03;33.50;75.60
18041;DHT22;9145;48.588;9.250;2022-07-31T15:05:30;33.00;77.10
18041;DHT22;9145;48.588;9.250;2022-07-31T15:07:57;33.00;75.50
18041;DHT22;9145;48.588;9.250;2022-07-31T15:10:25;33.20;75.50
18041;DHT22;9145;48.588;9.250;2022-07-31T15:12:52;32.80;78.70
18041;DHT22;9145;48.588;9.250;2022-07-31T15:15:19;32.80;80.20
18041;DHT22;9145;48.588;9.250;2022-07-31T15:17:46;33.20;77.70
18041;DHT22;9145;48.588;9.250;2022-07-31T15:20:13;33.60;78.00
18041;DHT22;9145;48.588;9.250;2022-07-31T15:22:40;34.10;73.60
18041;DHT22;9145;48.588;9.250;2022-07-31T15:25:07;34.30;75.70
18041;DHT22;9145;48.588;9.250;2022-07-31T15:27:36;33.50;74.20
18041;DHT22;9145;48.588;9.250;2022-07-31T15:30:03;32.80;76.00
18041;DHT22;9145;48.588;9.250;2022-07-31T15:32:30;32.60;77.10
18041;DHT22;9145;48.588;9.250;2022-07-31T15:34:57;32.90;78.90
18041;DHT22;9145;48.588;9.250;2022-07-31T15:37:24;32.70;77.40
18041;DHT22;9145;48.588;9.250;2022-07-31T15:39:51;32.40;82.60
18041;DHT22;9145;48.588;9.250;2022-07-31T15:42:18;32.10;77.10
18041;DHT22;9145;48.588;9.250;2022-07-31T15:44:46;32.00;82.60
18041;DHT22;9145;48.588;9.250;2022-07-31T15:47:13;32.10;80.40
18041;DHT22;9145;48.588;9.250;2022-07-31T15:49:42;32.00;80.20